sensor_id;sensor_type;location;lat;lon;timestamp;pressure;altitude;pressure_sealevel;temperature;humidity
43804;BME280;29430;52.924;-2.388;2023-05-11T00:00:40;98981.06;;;11.25;93.01
43804;BME280;29430;52.924;-2.388;2023-05-11T00:05:32;98979.31;;;11.19;93.26
43804;BME280;29430;52.924;-2.388;2023-05-11T00:10:24;98978.72;;;11.17;93.91
43804;BME280;29430;52.924;-2.388;2023-05-11T00:15:15;98984.16;;;11.17;94.25
43804;BME280;29430;52.924;-2.388;2023-05-11T00:20:07;98984.38;;;11.15;95.14
43804;BME280;29430;52.924;-2.388;2023-05-11T00:24:59;98991.47;;;11.16;95.35
43804;BME280;29430;52.924;-2.388;2023-05-11T00:29:51;98988.03;;;11.21;95.07
43804;BME280;29430;52.924;-2.388;2023-05-11T00:34:42;98979.66;;;11.22;95.34
43804;BME280;29430;52.924;-2.388;2023-05-11T00:39:34;98980.22;;;11.24;95.54
43804;BME280;29430;52.924;-2.388;2023-05-11T00:44:30;98981.66;;;11.27;95.97
43804;BME280;29430;52.924;-2.388;2023-05-11T00:49:22;98986.75;;;11.23;95.79
43804;BME280;29430;52.924;-2.388;2023-05-11T00:54:14;98987.31;;;11.25;95.91
43804;BME280;29430;52.924;-2.388;2023-05-11T00:59:07;98985.19;;;11.27;95.66
43804;BME280;29430;52.924;-2.388;2023-05-11T01:03:58;98991.22;;;11.29;95.93
43804;BME280;29430;52.924;-2.388;2023-05-11T01:08:56;98995.81;;;11.29;95.95
43804;BME280;29430;52.924;-2.388;2023-05-11T01:14:01;98996.03;;;11.27;96.52
43804;BME280;29430;52.924;-2.388;2023-05-11T01:18:59;99002.78;;;11.25;96.16
43804;BME280;29430;52.924;-2.388;2023-05-11T01:34:30;98995.13;;;11.22;96.31
43804;BME280;29430;52.924;-2.388;2023-05-11T01:39:35;99001.28;;;11.17;96.60
43804;BME280;29430;52.924;-2.388;2023-05-11T01:44:30;99002.09;;;11.18;97.49
43804;BME280;29430;52.924;-2.388;2023-05-11T01:49:23;99004.56;;;11.19;97.46
43804;BME280;29430;52.924;-2.388;2023-05-11T01:54:17;99001.84;;;11.19;97.21
43804;BME280;29430;52.924;-2.388;2023-05-11T01:59:10;98998.91;;;11.21;97.55
43804;BME280;29430;52.924;-2.388;2023-05-11T02:04:03;99002.44;;;11.21;97.56
43804;BME280;29430;52.924;-2.388;2023-05-11T02:08:56;99004.31;;;11.21;97.55
43804;BME280;29430;52.924;-2.388;2023-05-11T02:13:50;99010.81;;;11.20;98.26
43804;BME280;29430;52.924;-2.388;2023-05-11T02:18:45;99018.94;;;11.20;98.63
43804;BME280;29430;52.924;-2.388;2023-05-11T02:23:38;99022.28;;;11.22;98.33
43804;BME280;29430;52.924;-2.388;2023-05-11T02:28:31;99025.81;;;11.22;99.49
43804;BME280;29430;52.924;-2.388;2023-05-11T02:33:34;99026.03;;;11.21;99.35
43804;BME280;29430;52.924;-2.388;2023-05-11T02:38:31;99033.59;;;11.19;100.00
43804;BME280;29430;52.924;-2.388;2023-05-11T02:43:24;99038.19;;;11.18;99.87
43804;BME280;29430;52.924;-2.388;2023-05-11T02:48:25;99037.38;;;11.18;100.00
43804;BME280;29430;52.924;-2.388;2023-05-11T02:53:18;99035.72;;;11.17;100.00
43804;BME280;29430;52.924;-2.388;2023-05-11T02:58:11;99034.31;;;11.14;100.00
43804;BME280;29430;52.924;-2.388;2023-05-11T03:03:03;99038.09;;;11.13;100.00
43804;BME280;29430;52.924;-2.388;2023-05-11T03:07:57;99040.00;;;11.13;100.00
43804;BME280;29430;52.924;-2.388;2023-05-11T03:12:49;99037.28;;;11.13;100.00
43804;BME280;29430;52.924;-2.388;2023-05-11T03:17:42;99045.75;;;11.16;100.00
43804;BME280;29430;52.924;-2.388;2023-05-11T03:22:35;99040.91;;;11.18;100.00
43804;BME280;29430;52.924;-2.388;2023-05-11T03:27:28;99037.03;;;11.14;100.00
43804;BME280;29430;52.924;-2.388;2023-05-11T03:32:20;99035.38;;;11.13;100.00
43804;BME280;29430;52.924;-2.388;2023-05-11T03:37:13;99044.72;;;11.17;100.00
43804;BME280;29430;52.924;-2.388;2023-05-11T03:42:06;99042.00;;;11.17;100.00
43804;BME280;29430;52.924;-2.388;2023-05-11T03:46:59;99033.00;;;11.17;100.00
43804;BME280;29430;52.924;-2.388;2023-05-11T03:51:52;99033.47;;;11.14;100.00
43804;BME280;29430;52.924;-2.388;2023-05-11T03:56:44;99038.56;;;11.10;100.00
43804;BME280;29430;52.924;-2.388;2023-05-11T04:01:36;99033.38;;;11.08;100.00
43804;BME280;29430;52.924;-2.388;2023-05-11T04:06:28;99045.66;;;11.11;100.00
43804;BME280;29430;52.924;-2.388;2023-05-11T04:11:20;99044.22;;;11.08;100.00
43804;BME280;29430;52.924;-2.388;2023-05-11T04:16:12;99044.47;;;11.07;100.00
43804;BME280;29430;52.924;-2.388;2023-05-11T04:21:04;99038.00;;;11.08;100.00
43804;BME280;29430;52.924;-2.388;2023-05-11T04:25:56;99044.81;;;11.10;100.00
43804;BME280;29430;52.924;-2.388;2023-05-11T04:30:52;99046.47;;;11.11;100.00
43804;BME280;29430;52.924;-2.388;2023-05-11T04:35:44;99048.94;;;11.13;100.00
43804;BME280;29430;52.924;-2.388;2023-05-11T04:40:36;99048.59;;;11.09;100.00
43804;BME280;29430;52.924;-2.388;2023-05-11T04:45:27;99050.25;;;11.10;100.00
43804;BME280;29430;52.924;-2.388;2023-05-11T04:50:19;99058.38;;;11.10;100.00
43804;BME280;29430;52.924;-2.388;2023-05-11T04:55:11;99057.56;;;11.10;100.00
43804;BME280;29430;52.924;-2.388;2023-05-11T05:00:04;99062.19;;;11.09;100.00
43804;BME280;29430;52.924;-2.388;2023-05-11T05:04:56;99070.09;;;11.11;100.00
43804;BME280;29430;52.924;-2.388;2023-05-11T05:09:47;99075.28;;;11.13;100.00
43804;BME280;29430;52.924;-2.388;2023-05-11T05:14:39;99075.38;;;11.18;100.00
43804;BME280;29430;52.924;-2.388;2023-05-11T05:19:30;99082.22;;;11.20;100.00
43804;BME280;29430;52.924;-2.388;2023-05-11T05:24:22;99085.75;;;11.21;100.00
43804;BME280;29430;52.924;-2.388;2023-05-11T05:29:13;99095.31;;;11.23;100.00
43804;BME280;29430;52.924;-2.388;2023-05-11T05:34:05;99105.72;;;11.26;100.00
43804;BME280;29430;52.924;-2.388;2023-05-11T05:38:57;99098.63;;;11.25;100.00
43804;BME280;29430;52.924;-2.388;2023-05-11T05:43:49;99100.28;;;11.26;100.00
43804;BME280;29430;52.924;-2.388;2023-05-11T05:48:41;99098.97;;;11.29;100.00
43804;BME280;29430;52.924;-2.388;2023-05-11T05:53:33;99110.19;;;11.33;100.00
43804;BME280;29430;52.924;-2.388;2023-05-11T05:58:25;99108.63;;;11.37;100.00
43804;BME280;29430;52.924;-2.388;2023-05-11T06:03:17;99116.91;;;11.42;100.00
43804;BME280;29430;52.924;-2.388;2023-05-11T06:08:08;99117.25;;;11.45;100.00
43804;BME280;29430;52.924;-2.388;2023-05-11T06:13:01;99119.00;;;11.52;100.00
43804;BME280;29430;52.924;-2.388;2023-05-11T06:17:53;99130.44;;;11.65;100.00
43804;BME280;29430;52.924;-2.388;2023-05-11T06:22:45;99129.72;;;11.82;100.00
43804;BME280;29430;52.924;-2.388;2023-05-11T06:27:36;99135.56;;;11.91;100.00
43804;BME280;29430;52.924;-2.388;2023-05-11T06:32:28;99140.31;;;11.95;100.00
43804;BME280;29430;52.924;-2.388;2023-05-11T06:37:19;99130.47;;;12.06;100.00
43804;BME280;29430;52.924;-2.388;2023-05-11T06:42:11;99144.50;;;12.15;100.00
43804;BME280;29430;52.924;-2.388;2023-05-11T06:47:03;99151.47;;;12.23;100.00
43804;BME280;29430;52.924;-2.388;2023-05-11T06:51:55;99158.97;;;12.32;100.00
43804;BME280;29430;52.924;-2.388;2023-05-11T06:56:47;99152.44;;;12.45;100.00
43804;BME280;29430;52.924;-2.388;2023-05-11T07:01:38;99155.56;;;12.54;100.00
43804;BME280;29430;52.924;-2.388;2023-05-11T07:06:30;99162.38;;;12.68;100.00
43804;BME280;29430;52.924;-2.388;2023-05-11T07:11:24;99163.69;;;12.83;100.00
43804;BME280;29430;52.924;-2.388;2023-05-11T07:16:16;99173.16;;;12.97;100.00
43804;BME280;29430;52.924;-2.388;2023-05-11T07:21:07;99161.41;;;13.08;98.82
43804;BME280;29430;52.924;-2.388;2023-05-11T07:25:59;99174.84;;;13.15;98.30
43804;BME280;29430;52.924;-2.388;2023-05-11T07:30:51;99173.84;;;13.21;98.47
43804;BME280;29430;52.924;-2.388;2023-05-11T07:35:43;99176.50;;;13.33;97.28
43804;BME280;29430;52.924;-2.388;2023-05-11T07:40:34;99176.09;;;13.41;96.52
43804;BME280;29430;52.924;-2.388;2023-05-11T07:45:26;99175.81;;;13.60;95.83
43804;BME280;29430;52.924;-2.388;2023-05-11T07:50:18;99174.94;;;13.76;93.69
43804;BME280;29430;52.924;-2.388;2023-05-11T07:55:10;99184.78;;;14.00;92.42
43804;BME280;29430;52.924;-2.388;2023-05-11T08:00:01;99189.47;;;14.26;92.01
43804;BME280;29430;52.924;-2.388;2023-05-11T08:04:54;99185.72;;;14.32;89.28
43804;BME280;29430;52.924;-2.388;2023-05-11T08:09:45;99180.66;;;14.68;88.78
43804;BME280;29430;52.924;-2.388;2023-05-11T08:14:37;99173.84;;;15.36;88.34
43804;BME280;29430;52.924;-2.388;2023-05-11T08:19:29;99183.19;;;15.88;81.44
43804;BME280;29430;52.924;-2.388;2023-05-11T08:24:20;99174.63;;;16.27;78.92
43804;BME280;29430;52.924;-2.388;2023-05-11T08:29:12;99185.84;;;16.31;75.69
43804;BME280;29430;52.924;-2.388;2023-05-11T08:34:05;99192.03;;;16.05;78.79
43804;BME280;29430;52.924;-2.388;2023-05-11T08:39:09;99187.56;;;15.84;80.07
43804;BME280;29430;52.924;-2.388;2023-05-11T08:44:01;99189.56;;;15.61;80.88
43804;BME280;29430;52.924;-2.388;2023-05-11T08:48:53;99191.47;;;15.55;82.37
43804;BME280;29430;52.924;-2.388;2023-05-11T08:53:45;99185.75;;;15.57;81.63
43804;BME280;29430;52.924;-2.388;2023-05-11T08:58:37;99198.25;;;15.48;82.48
43804;BME280;29430;52.924;-2.388;2023-05-11T09:03:30;99197.94;;;15.44;80.97
43804;BME280;29430;52.924;-2.388;2023-05-11T09:08:25;99203.66;;;15.43;82.54
43804;BME280;29430;52.924;-2.388;2023-05-11T09:13:19;99203.56;;;15.65;82.58
43804;BME280;29430;52.924;-2.388;2023-05-11T09:18:11;99206.06;;;15.76;81.83
43804;BME280;29430;52.924;-2.388;2023-05-11T09:23:03;99207.88;;;16.03;80.68
43804;BME280;29430;52.924;-2.388;2023-05-11T09:27:56;99203.28;;;16.14;79.38
43804;BME280;29430;52.924;-2.388;2023-05-11T09:32:53;99202.25;;;16.31;79.84
43804;BME280;29430;52.924;-2.388;2023-05-11T09:38:08;99202.84;;;16.43;78.22
43804;BME280;29430;52.924;-2.388;2023-05-11T09:43:00;99200.19;;;16.74;76.85
43804;BME280;29430;52.924;-2.388;2023-05-11T09:47:52;99188.16;;;17.47;76.62
43804;BME280;29430;52.924;-2.388;2023-05-11T09:52:51;99199.25;;;18.67;71.57
43804;BME280;29430;52.924;-2.388;2023-05-11T09:57:52;99194.75;;;19.26;59.85
43804;BME280;29430;52.924;-2.388;2023-05-11T10:02:44;99201.50;;;19.39;61.70
43804;BME280;29430;52.924;-2.388;2023-05-11T10:07:36;99196.22;;;19.48;58.64
43804;BME280;29430;52.924;-2.388;2023-05-11T10:12:29;99198.38;;;19.17;60.80
43804;BME280;29430;52.924;-2.388;2023-05-11T10:17:24;99197.81;;;19.20;59.10
43804;BME280;29430;52.924;-2.388;2023-05-11T10:22:16;99199.34;;;19.36;57.96
43804;BME280;29430;52.924;-2.388;2023-05-11T10:27:10;99196.22;;;19.48;56.57
43804;BME280;29430;52.924;-2.388;2023-05-11T10:32:03;99196.63;;;19.60;56.47
43804;BME280;29430;52.924;-2.388;2023-05-11T10:36:59;99190.25;;;19.94;57.67
43804;BME280;29430;52.924;-2.388;2023-05-11T10:47:34;99184.28;;;21.39;54.47
43804;BME280;29430;52.924;-2.388;2023-05-11T11:02:46;99176.72;;;22.20;47.30
43804;BME280;29430;52.924;-2.388;2023-05-11T11:07:58;99184.91;;;21.69;47.53
43804;BME280;29430;52.924;-2.388;2023-05-11T11:13:07;99181.50;;;21.25;47.30
43804;BME280;29430;52.924;-2.388;2023-05-11T11:18:21;99182.41;;;20.88;51.72
43804;BME280;29430;52.924;-2.388;2023-05-11T11:33:54;99188.75;;;18.85;57.10
43804;BME280;29430;52.924;-2.388;2023-05-11T11:38:58;99192.25;;;18.46;57.76
43804;BME280;29430;52.924;-2.388;2023-05-11T11:43:51;99189.63;;;18.20;57.85
43804;BME280;29430;52.924;-2.388;2023-05-11T11:48:46;99199.84;;;18.04;56.39
43804;BME280;29430;52.924;-2.388;2023-05-11T12:03:34;99203.78;;;17.51;58.74
43804;BME280;29430;52.924;-2.388;2023-05-11T12:08:28;99199.16;;;17.36;59.59
43804;BME280;29430;52.924;-2.388;2023-05-11T12:13:23;99196.69;;;17.35;60.53
43804;BME280;29430;52.924;-2.388;2023-05-11T12:18:22;99203.28;;;17.29;61.05
43804;BME280;29430;52.924;-2.388;2023-05-11T12:23:13;99204.34;;;17.17;61.01
43804;BME280;29430;52.924;-2.388;2023-05-11T12:28:05;99199.13;;;17.00;61.50
43804;BME280;29430;52.924;-2.388;2023-05-11T12:32:57;99206.50;;;16.85;60.97
43804;BME280;29430;52.924;-2.388;2023-05-11T12:37:52;99215.22;;;16.66;61.64
43804;BME280;29430;52.924;-2.388;2023-05-11T12:42:51;99218.47;;;16.53;60.02
43804;BME280;29430;52.924;-2.388;2023-05-11T12:47:42;99222.84;;;16.49;60.79
43804;BME280;29430;52.924;-2.388;2023-05-11T12:52:34;99215.75;;;16.58;60.85
43804;BME280;29430;52.924;-2.388;2023-05-11T12:57:28;99217.13;;;16.60;60.14
43804;BME280;29430;52.924;-2.388;2023-05-11T13:02:20;99223.97;;;16.63;60.84
43804;BME280;29430;52.924;-2.388;2023-05-11T13:07:13;99226.72;;;16.63;61.84
43804;BME280;29430;52.924;-2.388;2023-05-11T13:12:23;99220.44;;;16.62;61.81
43804;BME280;29430;52.924;-2.388;2023-05-11T13:17:33;99214.09;;;16.57;62.05
43804;BME280;29430;52.924;-2.388;2023-05-11T13:22:24;99223.44;;;16.61;62.88
43804;BME280;29430;52.924;-2.388;2023-05-11T13:27:16;99220.13;;;16.59;63.33
43804;BME280;29430;52.924;-2.388;2023-05-11T13:32:08;99211.63;;;16.55;63.34
43804;BME280;29430;52.924;-2.388;2023-05-11T13:37:00;99217.97;;;16.61;64.54
43804;BME280;29430;52.924;-2.388;2023-05-11T13:41:51;99227.03;;;16.72;62.20
43804;BME280;29430;52.924;-2.388;2023-05-11T13:46:46;99231.66;;;16.71;59.48
43804;BME280;29430;52.924;-2.388;2023-05-11T13:51:37;99228.38;;;16.69;59.69
43804;BME280;29430;52.924;-2.388;2023-05-11T13:56:30;99248.66;;;16.78;59.88
43804;BME280;29430;52.924;-2.388;2023-05-11T14:01:21;99233.88;;;16.85;59.52
43804;BME280;29430;52.924;-2.388;2023-05-11T14:06:13;99237.22;;;16.92;59.77
43804;BME280;29430;52.924;-2.388;2023-05-11T14:11:05;99225.44;;;17.07;59.28
43804;BME280;29430;52.924;-2.388;2023-05-11T14:15:57;99230.66;;;17.39;59.36
43804;BME280;29430;52.924;-2.388;2023-05-11T14:20:48;99226.28;;;17.53;57.08
43804;BME280;29430;52.924;-2.388;2023-05-11T14:25:40;99223.75;;;17.78;59.16
43804;BME280;29430;52.924;-2.388;2023-05-11T14:30:31;99228.09;;;18.10;55.20
43804;BME280;29430;52.924;-2.388;2023-05-11T14:35:23;99221.81;;;17.99;54.77
43804;BME280;29430;52.924;-2.388;2023-05-11T14:40:15;99233.91;;;17.87;54.83
43804;BME280;29430;52.924;-2.388;2023-05-11T14:45:07;99236.63;;;17.82;53.80
43804;BME280;29430;52.924;-2.388;2023-05-11T14:49:59;99230.06;;;17.83;53.16
43804;BME280;29430;52.924;-2.388;2023-05-11T14:54:50;99236.91;;;17.86;52.99
43804;BME280;29430;52.924;-2.388;2023-05-11T14:59:42;99247.03;;;18.01;53.05
43804;BME280;29430;52.924;-2.388;2023-05-11T15:04:49;99248.19;;;17.89;53.62
43804;BME280;29430;52.924;-2.388;2023-05-11T15:09:41;99252.84;;;17.74;53.59
43804;BME280;29430;52.924;-2.388;2023-05-11T15:14:32;99269.06;;;17.60;56.26
43804;BME280;29430;52.924;-2.388;2023-05-11T15:19:24;99277.81;;;17.36;58.11
43804;BME280;29430;52.924;-2.388;2023-05-11T15:24:16;99286.28;;;17.09;59.82
43804;BME280;29430;52.924;-2.388;2023-05-11T15:29:07;99281.59;;;16.89;60.37
43804;BME280;29430;52.924;-2.388;2023-05-11T15:33:59;99279.06;;;16.82;61.53
43804;BME280;29430;52.924;-2.388;2023-05-11T15:38:53;99282.09;;;16.86;61.69
43804;BME280;29430;52.924;-2.388;2023-05-11T15:43:44;99281.53;;;16.83;61.24
43804;BME280;29430;52.924;-2.388;2023-05-11T15:48:36;99280.72;;;16.83;63.34
43804;BME280;29430;52.924;-2.388;2023-05-11T15:53:27;99293.03;;;16.80;62.56
43804;BME280;29430;52.924;-2.388;2023-05-11T15:58:20;99290.56;;;16.69;61.46
43804;BME280;29430;52.924;-2.388;2023-05-11T16:03:11;99300.09;;;16.61;62.14
43804;BME280;29430;52.924;-2.388;2023-05-11T16:08:04;99309.38;;;16.55;63.79
43804;BME280;29430;52.924;-2.388;2023-05-11T16:12:56;99318.59;;;16.33;65.92
43804;BME280;29430;52.924;-2.388;2023-05-11T16:17:51;99323.97;;;16.18;67.72
43804;BME280;29430;52.924;-2.388;2023-05-11T16:22:43;99332.88;;;15.98;70.41
43804;BME280;29430;52.924;-2.388;2023-05-11T16:27:34;99335.25;;;15.84;72.86
43804;BME280;29430;52.924;-2.388;2023-05-11T16:32:26;99348.25;;;15.71;71.36
43804;BME280;29430;52.924;-2.388;2023-05-11T16:37:18;99333.88;;;15.54;71.90
43804;BME280;29430;52.924;-2.388;2023-05-11T16:42:09;99347.16;;;15.40;71.01
43804;BME280;29430;52.924;-2.388;2023-05-11T16:47:01;99343.41;;;15.24;71.14
43804;BME280;29430;52.924;-2.388;2023-05-11T16:51:54;99342.75;;;15.12;71.98
43804;BME280;29430;52.924;-2.388;2023-05-11T16:56:45;99347.59;;;15.04;73.07
43804;BME280;29430;52.924;-2.388;2023-05-11T17:01:37;99352.13;;;14.94;74.01
43804;BME280;29430;52.924;-2.388;2023-05-11T17:06:30;99359.72;;;14.92;74.14
43804;BME280;29430;52.924;-2.388;2023-05-11T17:11:22;99363.75;;;14.84;74.61
43804;BME280;29430;52.924;-2.388;2023-05-11T17:16:14;99371.06;;;14.78;74.50
43804;BME280;29430;52.924;-2.388;2023-05-11T17:21:05;99375.94;;;14.76;73.32
43804;BME280;29430;52.924;-2.388;2023-05-11T17:25:57;99372.00;;;14.67;73.52
43804;BME280;29430;52.924;-2.388;2023-05-11T17:30:50;99380.38;;;14.60;74.12
43804;BME280;29430;52.924;-2.388;2023-05-11T17:35:43;99386.06;;;14.59;74.53
43804;BME280;29430;52.924;-2.388;2023-05-11T17:40:34;99389.28;;;14.56;74.97
43804;BME280;29430;52.924;-2.388;2023-05-11T17:45:26;99387.97;;;14.58;74.66
43804;BME280;29430;52.924;-2.388;2023-05-11T17:50:17;99390.78;;;14.63;73.07
43804;BME280;29430;52.924;-2.388;2023-05-11T17:55:09;99394.16;;;14.71;72.02
43804;BME280;29430;52.924;-2.388;2023-05-11T18:00:01;99399.38;;;14.72;72.75
43804;BME280;29430;52.924;-2.388;2023-05-11T18:04:53;99405.91;;;14.71;72.56
43804;BME280;29430;52.924;-2.388;2023-05-11T18:09:45;99406.97;;;14.70;74.55
43804;BME280;29430;52.924;-2.388;2023-05-11T18:14:36;99418.53;;;14.77;74.44
43804;BME280;29430;52.924;-2.388;2023-05-11T18:19:28;99422.09;;;14.78;73.91
43804;BME280;29430;52.924;-2.388;2023-05-11T18:24:20;99423.69;;;14.74;73.53
43804;BME280;29430;52.924;-2.388;2023-05-11T18:29:11;99427.44;;;14.67;74.39
43804;BME280;29430;52.924;-2.388;2023-05-11T18:34:03;99438.72;;;14.59;75.95
43804;BME280;29430;52.924;-2.388;2023-05-11T18:38:55;99454.78;;;14.56;75.49
43804;BME280;29430;52.924;-2.388;2023-05-11T18:43:47;99469.75;;;14.53;76.28
43804;BME280;29430;52.924;-2.388;2023-05-11T18:48:39;99476.47;;;14.45;77.47
43804;BME280;29430;52.924;-2.388;2023-05-11T18:53:31;99483.66;;;14.51;78.27
43804;BME280;29430;52.924;-2.388;2023-05-11T18:58:23;99483.75;;;14.57;79.46
43804;BME280;29430;52.924;-2.388;2023-05-11T19:03:16;99485.25;;;14.64;79.58
43804;BME280;29430;52.924;-2.388;2023-05-11T19:08:09;99488.31;;;14.68;79.55
43804;BME280;29430;52.924;-2.388;2023-05-11T19:13:00;99496.75;;;14.66;80.00
43804;BME280;29430;52.924;-2.388;2023-05-11T19:17:52;99505.19;;;14.65;80.25
43804;BME280;29430;52.924;-2.388;2023-05-11T19:22:44;99506.00;;;14.65;80.41
43804;BME280;29430;52.924;-2.388;2023-05-11T19:27:37;99527.03;;;14.65;80.30
43804;BME280;29430;52.924;-2.388;2023-05-11T19:32:29;99531.72;;;14.53;80.21
43804;BME280;29430;52.924;-2.388;2023-05-11T19:37:21;99543.28;;;14.43;81.08
43804;BME280;29430;52.924;-2.388;2023-05-11T19:42:12;99548.91;;;14.36;81.15
43804;BME280;29430;52.924;-2.388;2023-05-11T19:47:04;99561.22;;;14.39;81.30
43804;BME280;29430;52.924;-2.388;2023-05-11T19:51:56;99572.38;;;14.37;80.67
43804;BME280;29430;52.924;-2.388;2023-05-11T19:56:47;99571.94;;;14.28;80.71
43804;BME280;29430;52.924;-2.388;2023-05-11T20:01:39;99574.84;;;14.22;80.97
43804;BME280;29430;52.924;-2.388;2023-05-11T20:06:31;99584.09;;;14.21;80.54
43804;BME280;29430;52.924;-2.388;2023-05-11T20:11:24;99592.88;;;14.23;80.64
43804;BME280;29430;52.924;-2.388;2023-05-11T20:16:16;99607.81;;;14.20;80.42
43804;BME280;29430;52.924;-2.388;2023-05-11T20:21:08;99614.59;;;14.18;80.90
43804;BME280;29430;52.924;-2.388;2023-05-11T20:26:00;99624.59;;;14.12;80.55
43804;BME280;29430;52.924;-2.388;2023-05-11T20:30:53;99625.22;;;14.02;81.23
43804;BME280;29430;52.924;-2.388;2023-05-11T20:35:46;99630.22;;;13.93;81.35
43804;BME280;29430;52.924;-2.388;2023-05-11T20:40:37;99632.59;;;13.90;82.20
43804;BME280;29430;52.924;-2.388;2023-05-11T20:45:29;99639.25;;;13.82;82.68
43804;BME280;29430;52.924;-2.388;2023-05-11T20:50:21;99656.00;;;13.74;82.74
43804;BME280;29430;52.924;-2.388;2023-05-11T20:55:13;99645.94;;;13.63;83.36
43804;BME280;29430;52.924;-2.388;2023-05-11T21:00:07;99649.25;;;13.53;83.57
43804;BME280;29430;52.924;-2.388;2023-05-11T21:04:58;99659.72;;;13.44;84.17
43804;BME280;29430;52.924;-2.388;2023-05-11T21:09:52;99659.25;;;13.35;84.79
43804;BME280;29430;52.924;-2.388;2023-05-11T21:14:44;99663.59;;;13.24;84.95
43804;BME280;29430;52.924;-2.388;2023-05-11T21:19:36;99670.94;;;13.12;85.63
43804;BME280;29430;52.924;-2.388;2023-05-11T21:24:27;99680.28;;;13.04;86.23
43804;BME280;29430;52.924;-2.388;2023-05-11T21:29:19;99680.63;;;12.96;86.73
43804;BME280;29430;52.924;-2.388;2023-05-11T21:34:11;99688.53;;;12.86;86.62
43804;BME280;29430;52.924;-2.388;2023-05-11T21:39:02;99695.13;;;12.78;87.06
43804;BME280;29430;52.924;-2.388;2023-05-11T21:43:55;99706.13;;;12.71;87.16
43804;BME280;29430;52.924;-2.388;2023-05-11T21:48:47;99699.94;;;12.64;87.73
43804;BME280;29430;52.924;-2.388;2023-05-11T21:53:39;99710.09;;;12.57;87.89
43804;BME280;29430;52.924;-2.388;2023-05-11T21:58:30;99712.91;;;12.50;88.33
43804;BME280;29430;52.924;-2.388;2023-05-11T22:03:22;99724.13;;;12.42;88.73
43804;BME280;29430;52.924;-2.388;2023-05-11T22:08:15;99721.69;;;12.34;89.27
43804;BME280;29430;52.924;-2.388;2023-05-11T22:13:07;99727.81;;;12.29;89.78
43804;BME280;29430;52.924;-2.388;2023-05-11T22:17:59;99732.91;;;12.26;90.16
43804;BME280;29430;52.924;-2.388;2023-05-11T22:22:50;99739.63;;;12.23;90.51
43804;BME280;29430;52.924;-2.388;2023-05-11T22:27:42;99740.06;;;12.20;90.76
43804;BME280;29430;52.924;-2.388;2023-05-11T22:32:34;99742.66;;;12.15;91.03
43804;BME280;29430;52.924;-2.388;2023-05-11T22:37:26;99752.53;;;12.09;90.87
43804;BME280;29430;52.924;-2.388;2023-05-11T22:42:19;99747.78;;;12.05;90.94
43804;BME280;29430;52.924;-2.388;2023-05-11T22:47:11;99752.25;;;11.99;91.33
43804;BME280;29430;52.924;-2.388;2023-05-11T22:52:03;99753.34;;;11.91;91.62
43804;BME280;29430;52.924;-2.388;2023-05-11T22:56:55;99757.19;;;11.83;92.24
43804;BME280;29430;52.924;-2.388;2023-05-11T23:01:47;99764.34;;;11.78;92.63
43804;BME280;29430;52.924;-2.388;2023-05-11T23:06:39;99768.56;;;11.74;93.31
43804;BME280;29430;52.924;-2.388;2023-05-11T23:11:31;99773.03;;;11.68;93.49
43804;BME280;29430;52.924;-2.388;2023-05-11T23:16:23;99770.13;;;11.63;94.41
43804;BME280;29430;52.924;-2.388;2023-05-11T23:21:15;99775.41;;;11.58;94.30
43804;BME280;29430;52.924;-2.388;2023-05-11T23:26:07;99786.13;;;11.53;94.79
43804;BME280;29430;52.924;-2.388;2023-05-11T23:30:59;99792.22;;;11.48;95.27
43804;BME280;29430;52.924;-2.388;2023-05-11T23:35:51;99788.50;;;11.42;96.04
43804;BME280;29430;52.924;-2.388;2023-05-11T23:40:45;99790.22;;;11.37;96.55
43804;BME280;29430;52.924;-2.388;2023-05-11T23:45:36;99786.28;;;11.33;96.98
43804;BME280;29430;52.924;-2.388;2023-05-11T23:50:28;99787.78;;;11.28;97.56
43804;BME280;29430;52.924;-2.388;2023-05-11T23:55:20;99792.19;;;11.23;98.19
